createdAt,value
2022-11-22T00:03:09.820Z,17.855446
2022-11-22T00:08:11.522Z,18.264148
2022-11-22T00:13:13.048Z,17.793664
2022-11-22T00:18:14.725Z,17.5564
2022-11-22T00:23:16.602Z,17.707592
2022-11-22T00:28:18.381Z,17.450476
2022-11-22T00:33:19.881Z,17.707782
2022-11-22T00:38:21.429Z,17.441018
2022-11-22T00:43:23.144Z,17.599728
2022-11-22T00:48:24.635Z,17.821468
2022-11-22T00:53:26.441Z,17.446934
2022-11-22T00:58:28.164Z,17.536086
2022-11-22T01:03:29.727Z,17.433704
2022-11-22T01:08:31.254Z,17.885204
2022-11-22T01:13:33.027Z,18.141628
2022-11-22T01:18:34.587Z,18.117094
2022-11-22T01:23:36.548Z,18.350844
2022-11-22T01:28:38.320Z,18.206518
2022-11-22T01:33:39.810Z,17.290436
2022-11-22T01:38:41.662Z,17.578206
2022-11-22T01:43:43.433Z,18.387034
2022-11-22T01:48:45.219Z,18.057782
2022-11-22T01:53:47.168Z,17.433704
2022-11-22T01:58:48.703Z,17.486476
2022-11-22T02:03:50.494Z,17.890754
2022-11-22T02:08:52.247Z,17.508106
2022-11-22T02:13:54.048Z,17.567242
2022-11-22T02:18:55.825Z,17.62304
2022-11-22T02:23:57.835Z,17.143288
2022-11-22T02:28:59.612Z,17.052806
2022-11-22T02:34:01.774Z,17.786784
2022-11-22T02:39:03.837Z,17.56636
2022-11-22T02:44:05.550Z,17.267124
2022-11-22T02:49:07.285Z,16.85579
2022-11-22T02:54:09.294Z,17.027906
2022-11-22T02:59:11.142Z,17.58358
2022-11-22T03:04:12.943Z,17.490886
2022-11-22T03:09:14.794Z,17.24126
2022-11-22T03:14:16.579Z,17.291142
2022-11-22T03:19:18.388Z,17.364662
2022-11-22T03:24:20.449Z,17.442972
2022-11-22T03:29:22.445Z,17.822798
2022-11-22T03:34:23.975Z,17.502366
2022-11-22T03:39:25.627Z,16.87917
2022-11-22T03:44:27.113Z,16.644634
2022-11-22T03:49:29.068Z,17.20039
2022-11-22T03:54:31.092Z,17.500426
2022-11-22T03:59:32.837Z,17.458238
2022-11-22T04:04:34.521Z,17.462648
2022-11-22T04:09:36.514Z,17.199602
2022-11-22T04:14:38.252Z,17.2462
2022-11-22T04:19:39.957Z,17.20887
2022-11-22T04:24:42.012Z,17.30155
2022-11-22T04:29:43.697Z,17.883522
2022-11-22T04:34:45.400Z,17.52135
2022-11-22T04:39:47.211Z,17.925452
2022-11-22T04:44:48.971Z,17.95502
2022-11-22T04:49:50.770Z,17.900022
2022-11-22T04:54:52.725Z,18.80058
2022-11-22T04:59:55.480Z,19.448432
2022-11-22T05:04:57.284Z,20.327632
2022-11-22T05:09:59.250Z,20.712058
2022-11-22T05:15:01.013Z,20.321444
2022-11-22T05:20:02.796Z,20.691134
2022-11-22T05:25:04.764Z,21.306772
2022-11-22T05:30:06.368Z,21.986744
2022-11-22T05:35:08.155Z,21.806594
2022-11-22T05:40:09.997Z,22.606128
2022-11-22T05:45:11.632Z,22.907522
2022-11-22T05:50:13.397Z,23.475586
2022-11-22T05:55:15.231Z,23.739976
2022-11-22T06:00:16.944Z,23.920302
2022-11-22T06:05:18.723Z,24.266788
2022-11-22T06:10:20.512Z,24.180228
2022-11-22T06:15:22.263Z,23.98009
2022-11-22T06:20:23.858Z,24.682968
2022-11-22T06:25:25.574Z,26.531922
2022-11-22T06:30:27.163Z,24.935444
2022-11-22T06:35:28.813Z,24.024028
2022-11-22T06:40:30.326Z,23.442924
2022-11-22T06:45:31.877Z,23.91672
2022-11-22T06:50:33.338Z,24.281118
2022-11-22T06:55:50.184Z,23.756056
2022-11-22T07:00:52.271Z,23.256274
2022-11-22T07:05:53.871Z,23.843702
2022-11-22T07:10:55.521Z,24.3919
2022-11-22T07:15:57.218Z,24.046052
2022-11-22T07:20:58.780Z,25.464632
2022-11-22T07:26:00.671Z,24.975122
2022-11-22T07:31:02.201Z,24.916908
2022-11-22T07:36:03.706Z,24.16062
2022-11-22T07:41:05.389Z,23.875672
2022-11-22T07:46:06.940Z,25.349032
2022-11-22T07:51:08.519Z,26.465866
2022-11-22T07:56:10.438Z,26.439866
2022-11-22T08:01:12.383Z,26.107288
2022-11-22T08:06:14.010Z,25.45364
2022-11-22T08:11:15.769Z,26.871352
2022-11-22T08:16:17.280Z,25.794346
2022-11-22T08:21:18.814Z,26.069972
2022-11-22T08:26:20.628Z,24.890664
2022-11-22T08:31:22.189Z,26.42863
2022-11-22T08:36:23.703Z,27.033306
2022-11-22T08:41:25.310Z,27.644618
2022-11-22T08:46:26.833Z,26.336778
2022-11-22T08:51:28.343Z,24.75889
2022-11-22T08:56:30.058Z,25.24
2022-11-22T09:01:31.601Z,23.707124
2022-11-22T09:12:05.371Z,23.645328
2022-11-22T09:17:07.149Z,23.112572
2022-11-22T09:22:08.932Z,23.518846
2022-11-22T09:27:10.976Z,23.660716
2022-11-22T09:32:12.731Z,24.048548
2022-11-22T09:37:14.466Z,24.180038
2022-11-22T09:42:16.324Z,22.746926
2022-11-22T09:47:18.062Z,22.902732
2022-11-22T09:52:19.818Z,22.28731
2022-11-22T09:57:21.850Z,20.014772
2022-11-22T10:02:23.562Z,16.428106
2022-11-22T10:07:25.070Z,16.163568
2022-11-22T10:12:26.763Z,16.040424
2022-11-22T10:17:28.203Z,15.198786
2022-11-22T10:22:29.768Z,14.997808
2022-11-22T10:27:31.495Z,15.847126
2022-11-22T10:32:33.209Z,17.380092
2022-11-22T10:37:34.865Z,17.401274
2022-11-22T10:42:36.787Z,18.64088
2022-11-22T10:47:38.428Z,18.733574
2022-11-22T10:52:40.250Z,18.060062
2022-11-22T10:57:42.138Z,17.19385
2022-11-22T11:02:43.925Z,18.035786
2022-11-22T11:07:45.784Z,18.303324
2022-11-22T11:12:47.726Z,18.102684
2022-11-22T11:17:49.392Z,17.679694
2022-11-22T11:23:13.843Z,17.589388
2022-11-22T11:28:17.365Z,18.216478
2022-11-22T11:33:19.148Z,18.938108
2022-11-22T11:38:20.804Z,18.06359
2022-11-22T11:43:22.560Z,18.052734
2022-11-22T11:48:24.207Z,17.330766
2022-11-22T11:53:26.068Z,17.054218
2022-11-22T11:58:30.424Z,17.676084
2022-11-22T12:03:31.877Z,16.716132
2022-11-22T12:08:33.437Z,16.431104
2022-11-22T12:13:51.538Z,16.368358
2022-11-22T12:19:07.041Z,15.977406
2022-11-22T12:24:34.959Z,16.53924
2022-11-22T12:29:47.813Z,16.616912
2022-11-22T12:34:49.562Z,16.455556
2022-11-22T12:39:51.323Z,17.154144
2022-11-22T12:44:53.135Z,16.667228
2022-11-22T12:49:54.999Z,16.688952
2022-11-22T12:54:56.787Z,16.641106
2022-11-22T12:59:58.893Z,16.684
2022-11-22T13:05:00.634Z,17.066566
2022-11-22T13:10:02.397Z,17.731692
2022-11-22T13:15:04.160Z,17.309136
2022-11-22T13:20:05.888Z,17.143004
2022-11-22T13:25:07.701Z,16.306034
2022-11-22T13:30:09.673Z,16.362782
2022-11-22T13:35:11.449Z,17.710144
2022-11-22T13:40:13.136Z,16.498898
2022-11-22T13:45:14.963Z,16.200368
2022-11-22T13:50:16.736Z,17.321132
2022-11-22T13:55:18.557Z,18.564348
2022-11-22T14:00:20.381Z,17.213444
2022-11-22T14:05:22.183Z,18.399722
2022-11-22T14:10:23.971Z,17.95175
2022-11-22T14:15:25.545Z,17.871676
2022-11-22T14:20:27.031Z,17.766118
2022-11-22T14:25:28.711Z,17.69021
2022-11-22T14:30:31.020Z,18.01592
2022-11-22T14:35:32.748Z,18.557916
2022-11-22T14:40:34.267Z,19.019132
2022-11-22T14:45:35.884Z,18.319756
2022-11-22T14:50:37.581Z,17.608996
2022-11-22T14:55:39.317Z,18.85707
2022-11-22T15:00:41.616Z,18.816212
2022-11-22T15:09:10.584Z,18.941744
2022-11-22T15:14:32.876Z,18.397618
2022-11-22T16:02:10.415Z,17.430868
2022-11-22T16:07:12.341Z,17.70671
2022-11-22T16:12:14.167Z,16.918712
2022-11-22T16:17:15.953Z,17.0957
2022-11-22T16:22:17.750Z,16.526362
2022-11-22T16:27:19.543Z,16.974416
2022-11-22T16:32:21.526Z,16.073438
2022-11-22T16:37:23.268Z,16.42493
2022-11-22T16:42:25.020Z,16.790372
2022-11-22T16:47:26.902Z,15.74614
2022-11-22T16:52:28.373Z,15.248396
2022-11-22T16:57:29.824Z,15.886748
2022-11-22T17:02:31.750Z,15.94872
2022-11-22T17:07:33.227Z,15.907754
2022-11-22T17:12:34.700Z,15.26031
2022-11-22T17:17:36.395Z,15.563074
2022-11-22T17:22:37.911Z,15.576752
2022-11-22T17:27:39.380Z,15.738284
2022-11-22T17:32:41.182Z,15.19234
2022-11-22T17:37:42.682Z,14.963816
2022-11-22T17:42:44.401Z,14.690538
2022-11-22T17:47:46.291Z,14.927096
2022-11-22T17:52:47.960Z,14.79672
2022-11-22T17:57:53.009Z,14.724964
2022-11-22T18:02:57.351Z,15.258804
2022-11-22T18:07:59.081Z,13.449156
2022-11-22T18:13:20.311Z,13.437338
2022-11-22T18:18:48.941Z,13.082942
2022-11-22T18:23:56.766Z,12.885778
2022-11-22T18:29:35.201Z,12.937234
2022-11-22T18:34:43.445Z,12.684256
2022-11-22T18:39:45.204Z,13.091328
2022-11-22T18:44:46.987Z,12.856534
2022-11-22T18:49:49.111Z,12.789188
2022-11-22T18:54:50.838Z,13.583318
2022-11-22T18:59:52.488Z,13.324358
2022-11-22T19:04:54.438Z,13.619332
2022-11-22T19:09:56.073Z,13.089564
2022-11-22T19:14:57.899Z,13.18295
2022-11-22T19:19:59.832Z,13.68581
2022-11-22T19:25:01.651Z,12.585116
2022-11-22T19:30:03.244Z,12.693524
2022-11-22T19:35:05.415Z,12.86625
2022-11-22T19:40:07.152Z,13.074122
2022-11-22T19:45:08.916Z,12.794656
2022-11-22T19:50:10.796Z,12.44611
2022-11-22T19:55:12.608Z,12.811634
2022-11-22T20:00:14.560Z,13.07058
2022-11-22T20:05:16.565Z,12.429
2022-11-22T20:10:18.396Z,12.990806
2022-11-22T20:15:20.130Z,12.73225
2022-11-22T20:20:22.046Z,13.363532
2022-11-22T20:25:24.392Z,12.756364
2022-11-22T20:30:26.164Z,13.816172
2022-11-22T20:35:28.070Z,13.579166
2022-11-22T20:40:29.543Z,13.044988
2022-11-22T20:45:31.090Z,13.003168
2022-11-22T20:50:32.618Z,13.548716
2022-11-22T20:55:34.157Z,13.040916
2022-11-22T21:00:35.629Z,13.460622
2022-11-22T21:05:37.392Z,13.914754
2022-11-22T21:10:38.908Z,12.84656
2022-11-22T21:15:40.423Z,13.44077
2022-11-22T21:20:42.008Z,13.891536
2022-11-22T21:25:44.051Z,13.167926
2022-11-22T21:30:45.681Z,13.567604
2022-11-22T21:35:47.483Z,13.989684
2022-11-22T21:40:48.936Z,14.022698
2022-11-22T21:45:50.433Z,13.466266
2022-11-22T21:50:52.055Z,12.960054
2022-11-22T21:55:53.584Z,13.267758
2022-11-22T22:00:55.166Z,13.66232
2022-11-22T22:05:57.443Z,12.890144
2022-11-22T22:10:59.115Z,12.736402
2022-11-22T22:16:00.951Z,13.396018
2022-11-22T22:21:02.542Z,12.653872
2022-11-22T22:26:04.103Z,13.88315
2022-11-22T22:31:05.653Z,13.091232
2022-11-22T22:36:07.583Z,13.337492
2022-11-22T22:41:09.178Z,12.919374
2022-11-22T22:46:10.589Z,12.205752
2022-11-22T22:51:12.138Z,13.216832
2022-11-22T22:56:13.774Z,12.9944
2022-11-22T23:01:15.315Z,12.997942
2022-11-22T23:06:17.037Z,13.871956
2022-11-22T23:11:18.500Z,12.315366
2022-11-22T23:16:20.327Z,12.497022
2022-11-22T23:21:21.886Z,12.194448
2022-11-22T23:26:23.669Z,13.65525
2022-11-22T23:31:25.105Z,12.015534
2022-11-22T23:36:26.832Z,12.94057
2022-11-22T23:41:28.336Z,13.426196
2022-11-22T23:46:29.813Z,12.521746
2022-11-22T23:51:31.331Z,12.880104
2022-11-22T23:56:32.823Z,12.853182
